sensor_id;sensor_type;location;lat;lon;timestamp;pressure;altitude;pressure_sealevel;temperature;humidity
80624;BME280;70269;44.768;9.600;2023-12-22T00:01:54;96030.97;;;9.05;49.19
80624;BME280;70269;44.768;9.600;2023-12-22T00:04:20;96039.78;;;9.01;49.78
80624;BME280;70269;44.768;9.600;2023-12-22T00:06:45;96035.13;;;8.73;50.13
80624;BME280;70269;44.768;9.600;2023-12-22T00:09:13;96016.91;;;8.51;51.12
80624;BME280;70269;44.768;9.600;2023-12-22T00:11:39;96018.63;;;8.46;50.55
80624;BME280;70269;44.768;9.600;2023-12-22T00:14:04;96018.41;;;8.47;50.90
80624;BME280;70269;44.768;9.600;2023-12-22T00:16:30;96014.19;;;8.40;51.50
80624;BME280;70269;44.768;9.600;2023-12-22T00:18:55;96022.25;;;8.40;52.02
80624;BME280;70269;44.768;9.600;2023-12-22T00:21:21;96031.03;;;8.47;50.70
80624;BME280;70269;44.768;9.600;2023-12-22T00:23:47;96041.06;;;8.28;52.56
80624;BME280;70269;44.768;9.600;2023-12-22T00:26:12;96033.34;;;8.20;52.08
80624;BME280;70269;44.768;9.600;2023-12-22T00:28:38;96045.16;;;8.19;52.85
80624;BME280;70269;44.768;9.600;2023-12-22T00:31:03;96027.28;;;8.25;52.48
80624;BME280;70269;44.768;9.600;2023-12-22T00:33:29;96030.00;;;8.36;51.44
80624;BME280;70269;44.768;9.600;2023-12-22T00:35:54;96021.69;;;8.49;51.41
80624;BME280;70269;44.768;9.600;2023-12-22T00:38:20;96020.28;;;8.59;51.22
80624;BME280;70269;44.768;9.600;2023-12-22T00:40:45;96034.56;;;8.47;52.50
80624;BME280;70269;44.768;9.600;2023-12-22T00:43:11;96042.41;;;8.37;52.73
80624;BME280;70269;44.768;9.600;2023-12-22T00:45:36;96055.84;;;8.37;52.36
80624;BME280;70269;44.768;9.600;2023-12-22T00:48:02;96060.41;;;8.37;53.38
80624;BME280;70269;44.768;9.600;2023-12-22T00:50:28;96070.53;;;8.23;52.49
80624;BME280;70269;44.768;9.600;2023-12-22T00:52:53;96085.41;;;8.26;53.45
80624;BME280;70269;44.768;9.600;2023-12-22T00:55:19;96098.97;;;8.19;51.98
80624;BME280;70269;44.768;9.600;2023-12-22T00:57:44;96085.81;;;7.99;55.00
80624;BME280;70269;44.768;9.600;2023-12-22T01:00:10;96078.78;;;7.98;56.51
80624;BME280;70269;44.768;9.600;2023-12-22T01:02:38;96077.81;;;7.81;56.09
80624;BME280;70269;44.768;9.600;2023-12-22T01:05:04;96078.63;;;7.52;58.25
80624;BME280;70269;44.768;9.600;2023-12-22T01:07:30;96080.75;;;7.31;56.57
80624;BME280;70269;44.768;9.600;2023-12-22T01:09:56;96085.78;;;7.28;59.27
80624;BME280;70269;44.768;9.600;2023-12-22T01:12:27;96067.06;;;7.03;58.97
80624;BME280;70269;44.768;9.600;2023-12-22T01:14:53;96071.00;;;7.01;58.11
80624;BME280;70269;44.768;9.600;2023-12-22T01:17:18;96083.53;;;6.88;57.95
80624;BME280;70269;44.768;9.600;2023-12-22T01:19:44;96075.13;;;6.85;57.88
80624;BME280;70269;44.768;9.600;2023-12-22T01:22:10;96075.84;;;7.10;56.32
80624;BME280;70269;44.768;9.600;2023-12-22T01:24:36;96081.28;;;7.04;56.97
80624;BME280;70269;44.768;9.600;2023-12-22T01:27:05;96088.81;;;7.13;57.39
80624;BME280;70269;44.768;9.600;2023-12-22T01:29:30;96074.56;;;7.13;58.99
80624;BME280;70269;44.768;9.600;2023-12-22T01:31:56;96063.75;;;7.19;57.64
80624;BME280;70269;44.768;9.600;2023-12-22T01:34:21;96068.38;;;7.30;56.14
80624;BME280;70269;44.768;9.600;2023-12-22T01:36:47;96056.97;;;7.65;53.88
80624;BME280;70269;44.768;9.600;2023-12-22T01:39:12;96050.69;;;7.71;54.47
80624;BME280;70269;44.768;9.600;2023-12-22T01:41:38;96059.13;;;7.86;53.20
80624;BME280;70269;44.768;9.600;2023-12-22T01:44:03;96066.63;;;7.66;54.58
80624;BME280;70269;44.768;9.600;2023-12-22T01:46:29;96059.06;;;7.63;54.94
80624;BME280;70269;44.768;9.600;2023-12-22T01:48:55;96062.78;;;7.62;55.22
80624;BME280;70269;44.768;9.600;2023-12-22T01:51:20;96062.88;;;7.55;55.74
80624;BME280;70269;44.768;9.600;2023-12-22T01:53:49;96065.81;;;7.36;55.68
80624;BME280;70269;44.768;9.600;2023-12-22T01:56:15;96065.81;;;7.36;56.38
80624;BME280;70269;44.768;9.600;2023-12-22T01:58:40;96066.59;;;7.06;57.43
80624;BME280;70269;44.768;9.600;2023-12-22T02:01:16;96059.59;;;6.87;57.97
80624;BME280;70269;44.768;9.600;2023-12-22T02:03:41;96059.38;;;6.70;58.04
80624;BME280;70269;44.768;9.600;2023-12-22T02:06:07;96049.38;;;6.96;56.47
80624;BME280;70269;44.768;9.600;2023-12-22T02:08:33;96060.53;;;7.11;56.36
80624;BME280;70269;44.768;9.600;2023-12-22T02:11:00;96072.41;;;7.21;56.83
80624;BME280;70269;44.768;9.600;2023-12-22T02:13:26;96090.41;;;7.21;56.73
80624;BME280;70269;44.768;9.600;2023-12-22T02:15:56;96087.16;;;7.30;56.41
80624;BME280;70269;44.768;9.600;2023-12-22T02:18:26;96057.03;;;7.28;56.79
80624;BME280;70269;44.768;9.600;2023-12-22T02:20:56;96052.56;;;7.04;57.16
80624;BME280;70269;44.768;9.600;2023-12-22T02:23:21;96068.09;;;7.02;56.98
80624;BME280;70269;44.768;9.600;2023-12-22T02:25:49;96073.53;;;7.14;56.36
80624;BME280;70269;44.768;9.600;2023-12-22T02:28:19;96086.56;;;7.28;56.32
80624;BME280;70269;44.768;9.600;2023-12-22T02:30:54;96081.84;;;7.42;55.04
80624;BME280;70269;44.768;9.600;2023-12-22T02:33:23;96073.25;;;7.52;54.61
80624;BME280;70269;44.768;9.600;2023-12-22T02:35:58;96082.38;;;7.51;54.83
80624;BME280;70269;44.768;9.600;2023-12-22T02:38:28;96069.19;;;7.61;55.35
80624;BME280;70269;44.768;9.600;2023-12-22T02:40:55;96068.31;;;7.79;53.94
80624;BME280;70269;44.768;9.600;2023-12-22T02:43:21;96061.44;;;7.71;55.01
80624;BME280;70269;44.768;9.600;2023-12-22T02:45:50;96063.03;;;7.72;52.96
80624;BME280;70269;44.768;9.600;2023-12-22T02:48:16;96068.75;;;8.05;50.75
80624;BME280;70269;44.768;9.600;2023-12-22T02:50:42;96060.56;;;8.00;52.95
80624;BME280;70269;44.768;9.600;2023-12-22T02:53:07;96050.81;;;7.88;53.33
80624;BME280;70269;44.768;9.600;2023-12-22T02:55:33;96047.13;;;7.59;55.21
80624;BME280;70269;44.768;9.600;2023-12-22T02:57:59;96054.41;;;7.70;53.10
80624;BME280;70269;44.768;9.600;2023-12-22T03:00:24;96038.94;;;7.65;53.60
80624;BME280;70269;44.768;9.600;2023-12-22T03:02:50;96040.97;;;7.40;53.77
80624;BME280;70269;44.768;9.600;2023-12-22T03:05:15;96060.31;;;7.60;53.29
80624;BME280;70269;44.768;9.600;2023-12-22T03:07:41;96046.25;;;7.47;54.33
80624;BME280;70269;44.768;9.600;2023-12-22T03:10:06;96052.56;;;7.82;52.80
80624;BME280;70269;44.768;9.600;2023-12-22T03:12:32;96045.44;;;7.76;53.72
80624;BME280;70269;44.768;9.600;2023-12-22T03:14:57;96049.88;;;8.35;48.44
80624;BME280;70269;44.768;9.600;2023-12-22T03:17:23;96040.00;;;8.18;52.19
80624;BME280;70269;44.768;9.600;2023-12-22T03:19:49;96041.38;;;8.08;50.29
80624;BME280;70269;44.768;9.600;2023-12-22T03:22:14;96038.25;;;8.23;46.20
80624;BME280;70269;44.768;9.600;2023-12-22T03:24:40;96049.88;;;8.93;43.75
80624;BME280;70269;44.768;9.600;2023-12-22T03:27:05;96056.72;;;9.01;44.14
80624;BME280;70269;44.768;9.600;2023-12-22T03:29:31;96056.81;;;9.29;41.86
80624;BME280;70269;44.768;9.600;2023-12-22T03:31:56;96049.91;;;9.22;47.01
80624;BME280;70269;44.768;9.600;2023-12-22T03:34:22;96057.44;;;8.97;45.62
80624;BME280;70269;44.768;9.600;2023-12-22T03:36:48;96044.13;;;8.90;44.69
80624;BME280;70269;44.768;9.600;2023-12-22T03:39:17;96041.72;;;9.17;42.69
80624;BME280;70269;44.768;9.600;2023-12-22T03:41:42;96036.50;;;8.99;45.82
80624;BME280;70269;44.768;9.600;2023-12-22T03:44:08;96008.38;;;9.06;44.85
80624;BME280;70269;44.768;9.600;2023-12-22T03:46:33;95998.16;;;10.43;36.39
80624;BME280;70269;44.768;9.600;2023-12-22T03:48:59;96005.16;;;11.00;33.78
80624;BME280;70269;44.768;9.600;2023-12-22T03:51:25;96022.56;;;11.30;35.19
80624;BME280;70269;44.768;9.600;2023-12-22T03:53:50;96022.22;;;10.83;37.54
80624;BME280;70269;44.768;9.600;2023-12-22T03:56:16;96015.16;;;10.44;38.22
80624;BME280;70269;44.768;9.600;2023-12-22T03:58:42;96030.16;;;10.90;34.81
80624;BME280;70269;44.768;9.600;2023-12-22T04:01:07;96042.38;;;10.76;39.19
80624;BME280;70269;44.768;9.600;2023-12-22T04:03:33;96033.06;;;10.67;35.23
80624;BME280;70269;44.768;9.600;2023-12-22T04:06:03;96045.47;;;10.68;39.04
80624;BME280;70269;44.768;9.600;2023-12-22T04:08:29;96049.84;;;10.52;37.70
80624;BME280;70269;44.768;9.600;2023-12-22T04:10:54;96041.16;;;11.05;31.59
80624;BME280;70269;44.768;9.600;2023-12-22T04:13:20;96053.63;;;11.50;31.66
80624;BME280;70269;44.768;9.600;2023-12-22T04:15:45;96051.31;;;12.39;29.99
80624;BME280;70269;44.768;9.600;2023-12-22T04:18:11;96045.50;;;11.71;32.57
80624;BME280;70269;44.768;9.600;2023-12-22T04:20:37;96064.28;;;12.10;28.41
80624;BME280;70269;44.768;9.600;2023-12-22T04:23:02;96053.88;;;12.24;29.37
80624;BME280;70269;44.768;9.600;2023-12-22T04:25:28;96079.56;;;12.21;30.47
80624;BME280;70269;44.768;9.600;2023-12-22T04:27:54;96086.75;;;12.10;29.17
80624;BME280;70269;44.768;9.600;2023-12-22T04:30:19;96078.69;;;11.67;34.66
80624;BME280;70269;44.768;9.600;2023-12-22T04:32:45;96079.13;;;12.02;29.07
80624;BME280;70269;44.768;9.600;2023-12-22T04:35:11;96110.78;;;11.80;32.63
80624;BME280;70269;44.768;9.600;2023-12-22T04:37:36;96081.72;;;11.70;31.09
80624;BME280;70269;44.768;9.600;2023-12-22T04:40:02;96102.19;;;12.37;29.46
80624;BME280;70269;44.768;9.600;2023-12-22T04:42:28;96106.53;;;13.07;27.16
80624;BME280;70269;44.768;9.600;2023-12-22T04:44:54;96116.59;;;12.74;28.94
80624;BME280;70269;44.768;9.600;2023-12-22T04:47:20;96112.97;;;12.32;28.90
80624;BME280;70269;44.768;9.600;2023-12-22T04:49:46;96120.50;;;11.76;32.38
80624;BME280;70269;44.768;9.600;2023-12-22T04:52:11;96115.28;;;11.31;36.25
80624;BME280;70269;44.768;9.600;2023-12-22T04:54:38;96111.41;;;11.44;32.63
80624;BME280;70269;44.768;9.600;2023-12-22T04:57:04;96112.25;;;11.66;30.13
80624;BME280;70269;44.768;9.600;2023-12-22T04:59:30;96121.97;;;11.67;33.11
80624;BME280;70269;44.768;9.600;2023-12-22T05:01:56;96124.56;;;12.00;29.13
80624;BME280;70269;44.768;9.600;2023-12-22T05:04:21;96111.13;;;12.37;28.48
80624;BME280;70269;44.768;9.600;2023-12-22T05:06:48;96112.16;;;12.31;28.42
80624;BME280;70269;44.768;9.600;2023-12-22T05:09:15;96119.84;;;11.91;33.58
80624;BME280;70269;44.768;9.600;2023-12-22T05:11:41;96107.66;;;11.66;28.71
80624;BME280;70269;44.768;9.600;2023-12-22T05:14:06;96113.94;;;12.21;29.39
80624;BME280;70269;44.768;9.600;2023-12-22T05:16:32;96122.00;;;11.89;31.33
80624;BME280;70269;44.768;9.600;2023-12-22T05:19:01;96129.22;;;12.32;27.72
80624;BME280;70269;44.768;9.600;2023-12-22T05:21:26;96121.72;;;12.39;30.44
80624;BME280;70269;44.768;9.600;2023-12-22T05:23:53;96132.72;;;11.79;29.88
80624;BME280;70269;44.768;9.600;2023-12-22T05:26:22;96146.47;;;12.26;29.09
80624;BME280;70269;44.768;9.600;2023-12-22T05:28:49;96155.75;;;12.62;26.84
80624;BME280;70269;44.768;9.600;2023-12-22T05:31:16;96165.81;;;12.98;26.75
80624;BME280;70269;44.768;9.600;2023-12-22T05:33:41;96152.97;;;12.51;28.70
80624;BME280;70269;44.768;9.600;2023-12-22T05:36:07;96140.91;;;12.37;26.94
80624;BME280;70269;44.768;9.600;2023-12-22T05:38:39;96152.88;;;12.14;30.46
80624;BME280;70269;44.768;9.600;2023-12-22T05:41:06;96137.91;;;11.85;29.57
80624;BME280;70269;44.768;9.600;2023-12-22T05:43:32;96151.84;;;12.21;27.20
80624;BME280;70269;44.768;9.600;2023-12-22T05:45:59;96147.50;;;12.20;29.45
80624;BME280;70269;44.768;9.600;2023-12-22T05:48:25;96151.53;;;12.17;29.79
80624;BME280;70269;44.768;9.600;2023-12-22T05:50:51;96161.22;;;11.69;32.84
80624;BME280;70269;44.768;9.600;2023-12-22T05:53:16;96142.53;;;11.46;29.25
80624;BME280;70269;44.768;9.600;2023-12-22T05:55:42;96163.47;;;12.48;26.24
80624;BME280;70269;44.768;9.600;2023-12-22T05:58:07;96170.38;;;12.92;26.07
80624;BME280;70269;44.768;9.600;2023-12-22T06:00:34;96167.69;;;12.34;32.21
80624;BME280;70269;44.768;9.600;2023-12-22T06:03:01;96173.06;;;11.85;29.25
80624;BME280;70269;44.768;9.600;2023-12-22T06:05:27;96177.53;;;12.18;26.68
80624;BME280;70269;44.768;9.600;2023-12-22T06:07:52;96170.91;;;12.31;27.74
80624;BME280;70269;44.768;9.600;2023-12-22T06:10:18;96183.63;;;12.57;26.60
80624;BME280;70269;44.768;9.600;2023-12-22T06:12:44;96186.56;;;12.82;26.18
80624;BME280;70269;44.768;9.600;2023-12-22T06:15:09;96195.28;;;12.57;28.59
80624;BME280;70269;44.768;9.600;2023-12-22T06:17:35;96179.63;;;12.38;28.92
80624;BME280;70269;44.768;9.600;2023-12-22T06:20:01;96199.28;;;11.63;32.07
80624;BME280;70269;44.768;9.600;2023-12-22T06:22:26;96181.25;;;11.13;32.83
80624;BME280;70269;44.768;9.600;2023-12-22T06:24:52;96182.38;;;11.17;29.36
80624;BME280;70269;44.768;9.600;2023-12-22T06:27:18;96192.03;;;11.30;32.75
80624;BME280;70269;44.768;9.600;2023-12-22T06:29:43;96187.28;;;11.37;30.43
80624;BME280;70269;44.768;9.600;2023-12-22T06:32:09;96199.09;;;11.69;28.32
80624;BME280;70269;44.768;9.600;2023-12-22T06:34:35;96205.25;;;11.65;30.00
80624;BME280;70269;44.768;9.600;2023-12-22T06:37:00;96190.88;;;11.81;27.83
80624;BME280;70269;44.768;9.600;2023-12-22T06:39:26;96195.16;;;11.60;30.04
80624;BME280;70269;44.768;9.600;2023-12-22T06:41:51;96187.94;;;11.83;28.62
80624;BME280;70269;44.768;9.600;2023-12-22T06:44:17;96195.03;;;11.50;30.09
80624;BME280;70269;44.768;9.600;2023-12-22T06:46:42;96195.91;;;11.56;32.18
80624;BME280;70269;44.768;9.600;2023-12-22T06:49:08;96203.53;;;11.04;31.77
80624;BME280;70269;44.768;9.600;2023-12-22T06:51:34;96192.72;;;11.59;27.98
80624;BME280;70269;44.768;9.600;2023-12-22T06:54:01;96193.41;;;11.88;27.70
80624;BME280;70269;44.768;9.600;2023-12-22T06:56:30;96194.44;;;12.03;28.06
80624;BME280;70269;44.768;9.600;2023-12-22T06:58:57;96203.47;;;11.92;28.35
80624;BME280;70269;44.768;9.600;2023-12-22T07:01:24;96217.88;;;11.98;28.90
80624;BME280;70269;44.768;9.600;2023-12-22T07:03:50;96214.31;;;11.54;29.72
80624;BME280;70269;44.768;9.600;2023-12-22T07:06:20;96222.47;;;11.59;28.60
80624;BME280;70269;44.768;9.600;2023-12-22T07:11:44;96224.75;;;11.28;30.50
80624;BME280;70269;44.768;9.600;2023-12-22T07:14:10;96225.84;;;11.49;28.64
80624;BME280;70269;44.768;9.600;2023-12-22T07:16:36;96251.09;;;11.38;32.35
80624;BME280;70269;44.768;9.600;2023-12-22T07:19:02;96248.50;;;11.26;29.25
80624;BME280;70269;44.768;9.600;2023-12-22T07:21:28;96251.25;;;11.31;34.80
80624;BME280;70269;44.768;9.600;2023-12-22T07:23:53;96256.78;;;10.75;34.09
80624;BME280;70269;44.768;9.600;2023-12-22T07:26:19;96256.94;;;11.85;28.13
80624;BME280;70269;44.768;9.600;2023-12-22T07:28:47;96258.97;;;11.95;28.20
80624;BME280;70269;44.768;9.600;2023-12-22T07:31:14;96279.50;;;11.91;30.98
80624;BME280;70269;44.768;9.600;2023-12-22T07:33:40;96281.41;;;11.07;33.93
80624;BME280;70269;44.768;9.600;2023-12-22T07:36:06;96286.97;;;10.43;35.73
80624;BME280;70269;44.768;9.600;2023-12-22T07:38:32;96295.09;;;9.92;40.69
80624;BME280;70269;44.768;9.600;2023-12-22T07:40:58;96304.44;;;10.24;32.44
80624;BME280;70269;44.768;9.600;2023-12-22T07:43:24;96285.66;;;11.36;29.66
80624;BME280;70269;44.768;9.600;2023-12-22T07:45:50;96289.16;;;11.70;29.57
80624;BME280;70269;44.768;9.600;2023-12-22T07:48:19;96296.16;;;11.66;30.47
80624;BME280;70269;44.768;9.600;2023-12-22T07:50:45;96300.50;;;11.17;31.96
80624;BME280;70269;44.768;9.600;2023-12-22T07:53:11;96307.50;;;11.01;34.90
80624;BME280;70269;44.768;9.600;2023-12-22T07:55:36;96295.94;;;10.72;32.10
80624;BME280;70269;44.768;9.600;2023-12-22T07:58:06;96311.16;;;10.78;32.20
80624;BME280;70269;44.768;9.600;2023-12-22T08:00:33;96306.16;;;11.32;30.60
80624;BME280;70269;44.768;9.600;2023-12-22T08:02:59;96300.00;;;11.36;31.25
80624;BME280;70269;44.768;9.600;2023-12-22T08:05:26;96289.38;;;12.02;28.89
80624;BME280;70269;44.768;9.600;2023-12-22T08:07:52;96304.31;;;12.48;30.04
80624;BME280;70269;44.768;9.600;2023-12-22T08:10:17;96305.41;;;12.95;29.10
80624;BME280;70269;44.768;9.600;2023-12-22T08:12:43;96296.50;;;13.00;30.40
80624;BME280;70269;44.768;9.600;2023-12-22T08:15:09;96292.97;;;13.00;28.56
80624;BME280;70269;44.768;9.600;2023-12-22T08:17:45;96301.38;;;13.03;31.25
80624;BME280;70269;44.768;9.600;2023-12-22T08:20:11;96297.19;;;13.12;31.94
80624;BME280;70269;44.768;9.600;2023-12-22T08:22:41;96300.06;;;13.06;32.95
80624;BME280;70269;44.768;9.600;2023-12-22T08:25:06;96300.94;;;13.11;30.69
80624;BME280;70269;44.768;9.600;2023-12-22T08:27:33;96303.91;;;13.36;27.36
80624;BME280;70269;44.768;9.600;2023-12-22T08:29:58;96299.78;;;13.66;28.04
80624;BME280;70269;44.768;9.600;2023-12-22T08:32:24;96302.34;;;13.83;29.50
80624;BME280;70269;44.768;9.600;2023-12-22T08:34:49;96309.56;;;14.09;25.96
80624;BME280;70269;44.768;9.600;2023-12-22T08:37:15;96298.91;;;14.39;26.38
80624;BME280;70269;44.768;9.600;2023-12-22T08:39:40;96309.81;;;14.49;26.30
80624;BME280;70269;44.768;9.600;2023-12-22T08:42:06;96313.59;;;14.43;28.05
80624;BME280;70269;44.768;9.600;2023-12-22T08:44:32;96323.94;;;14.46;27.42
80624;BME280;70269;44.768;9.600;2023-12-22T08:46:57;96325.38;;;14.69;26.55
80624;BME280;70269;44.768;9.600;2023-12-22T08:49:23;96316.75;;;14.25;27.82
80624;BME280;70269;44.768;9.600;2023-12-22T08:51:48;96333.13;;;14.40;26.73
80624;BME280;70269;44.768;9.600;2023-12-22T08:54:14;96344.38;;;14.59;25.90
80624;BME280;70269;44.768;9.600;2023-12-22T08:56:40;96341.72;;;14.79;27.21
80624;BME280;70269;44.768;9.600;2023-12-22T08:59:06;96354.84;;;14.97;27.37
80624;BME280;70269;44.768;9.600;2023-12-22T09:01:34;96355.66;;;14.98;25.81
80624;BME280;70269;44.768;9.600;2023-12-22T09:04:00;96364.41;;;15.10;26.05
80624;BME280;70269;44.768;9.600;2023-12-22T09:06:27;96350.81;;;15.15;27.29
80624;BME280;70269;44.768;9.600;2023-12-22T09:08:52;96364.09;;;15.07;25.48
80624;BME280;70269;44.768;9.600;2023-12-22T09:11:19;96354.66;;;15.24;25.93
80624;BME280;70269;44.768;9.600;2023-12-22T09:13:45;96357.63;;;15.28;26.51
80624;BME280;70269;44.768;9.600;2023-12-22T09:16:11;96357.38;;;15.34;27.18
80624;BME280;70269;44.768;9.600;2023-12-22T09:18:36;96364.16;;;15.27;27.33
80624;BME280;70269;44.768;9.600;2023-12-22T09:21:02;96358.72;;;15.27;26.22
80624;BME280;70269;44.768;9.600;2023-12-22T09:23:29;96361.44;;;15.32;25.43
80624;BME280;70269;44.768;9.600;2023-12-22T09:25:54;96365.03;;;15.48;26.23
80624;BME280;70269;44.768;9.600;2023-12-22T09:28:20;96370.69;;;15.31;26.01
80624;BME280;70269;44.768;9.600;2023-12-22T09:30:46;96376.16;;;15.51;26.37
80624;BME280;70269;44.768;9.600;2023-12-22T09:33:12;96377.03;;;15.57;25.88
80624;BME280;70269;44.768;9.600;2023-12-22T09:35:38;96365.03;;;15.48;26.77
80624;BME280;70269;44.768;9.600;2023-12-22T09:38:07;96363.97;;;15.59;26.55
80624;BME280;70269;44.768;9.600;2023-12-22T09:40:34;96365.59;;;15.60;25.67
80624;BME280;70269;44.768;9.600;2023-12-22T09:43:02;96365.03;;;15.43;26.58
80624;BME280;70269;44.768;9.600;2023-12-22T09:45:30;96364.22;;;15.57;26.30
80624;BME280;70269;44.768;9.600;2023-12-22T09:47:59;96381.94;;;15.55;25.78
80624;BME280;70269;44.768;9.600;2023-12-22T09:50:29;96355.75;;;15.44;25.52
80624;BME280;70269;44.768;9.600;2023-12-22T09:52:55;96363.91;;;15.33;25.69
80624;BME280;70269;44.768;9.600;2023-12-22T09:55:21;96361.75;;;15.35;27.94
80624;BME280;70269;44.768;9.600;2023-12-22T09:57:49;96357.94;;;15.47;28.78
80624;BME280;70269;44.768;9.600;2023-12-22T10:00:15;96362.56;;;15.36;27.74
80624;BME280;70269;44.768;9.600;2023-12-22T10:02:42;96354.66;;;15.39;28.97
80624;BME280;70269;44.768;9.600;2023-12-22T10:05:08;96345.94;;;15.32;26.83
80624;BME280;70269;44.768;9.600;2023-12-22T10:07:35;96347.84;;;15.37;28.28
80624;BME280;70269;44.768;9.600;2023-12-22T10:10:03;96337.22;;;15.20;27.14
80624;BME280;70269;44.768;9.600;2023-12-22T10:12:29;96333.41;;;15.21;27.52
80624;BME280;70269;44.768;9.600;2023-12-22T10:15:00;96343.47;;;15.06;28.86
80624;BME280;70269;44.768;9.600;2023-12-22T10:17:27;96352.69;;;15.10;29.61
80624;BME280;70269;44.768;9.600;2023-12-22T10:19:52;96349.16;;;15.09;28.81
80624;BME280;70269;44.768;9.600;2023-12-22T10:22:18;96350.22;;;14.98;27.75
80624;BME280;70269;44.768;9.600;2023-12-22T10:27:10;96338.78;;;14.91;28.07
80624;BME280;70269;44.768;9.600;2023-12-22T10:29:36;96343.66;;;14.94;28.75
80624;BME280;70269;44.768;9.600;2023-12-22T10:32:03;96332.50;;;14.80;30.91
80624;BME280;70269;44.768;9.600;2023-12-22T10:34:30;96343.66;;;14.84;28.91
80624;BME280;70269;44.768;9.600;2023-12-22T10:36:56;96343.63;;;14.74;28.31
80624;BME280;70269;44.768;9.600;2023-12-22T10:39:22;96349.56;;;14.71;29.79
80624;BME280;70269;44.768;9.600;2023-12-22T10:41:48;96338.75;;;14.81;30.23
80624;BME280;70269;44.768;9.600;2023-12-22T10:44:15;96325.66;;;14.63;31.62
80624;BME280;70269;44.768;9.600;2023-12-22T10:46:43;96333.81;;;14.68;30.25
80624;BME280;70269;44.768;9.600;2023-12-22T10:49:08;96334.88;;;14.62;30.29
80624;BME280;70269;44.768;9.600;2023-12-22T10:51:34;96344.94;;;14.61;30.48
80624;BME280;70269;44.768;9.600;2023-12-22T10:54:00;96337.03;;;14.65;30.67
80624;BME280;70269;44.768;9.600;2023-12-22T10:56:25;96327.78;;;14.55;30.52
80624;BME280;70269;44.768;9.600;2023-12-22T10:58:53;96325.91;;;14.66;32.59
80624;BME280;70269;44.768;9.600;2023-12-22T11:01:20;96325.91;;;14.61;31.29
80624;BME280;70269;44.768;9.600;2023-12-22T11:03:50;96316.31;;;14.43;31.24
80624;BME280;70269;44.768;9.600;2023-12-22T11:06:16;96324.16;;;14.40;32.05
80624;BME280;70269;44.768;9.600;2023-12-22T11:08:46;96311.59;;;14.29;31.82
80624;BME280;70269;44.768;9.600;2023-12-22T11:11:27;96314.31;;;14.34;32.03
80624;BME280;70269;44.768;9.600;2023-12-22T11:13:56;96309.22;;;14.37;33.53
80624;BME280;70269;44.768;9.600;2023-12-22T11:16:23;96310.44;;;14.67;34.95
80624;BME280;70269;44.768;9.600;2023-12-22T11:18:49;96297.06;;;14.55;32.24
80624;BME280;70269;44.768;9.600;2023-12-22T11:21:20;96295.34;;;14.39;32.98
80624;BME280;70269;44.768;9.600;2023-12-22T11:23:47;96289.38;;;14.37;32.98
80624;BME280;70269;44.768;9.600;2023-12-22T11:26:16;96282.28;;;14.36;33.33
80624;BME280;70269;44.768;9.600;2023-12-22T11:28:42;96282.28;;;14.36;32.02
80624;BME280;70269;44.768;9.600;2023-12-22T11:31:10;96300.72;;;14.24;31.77
80624;BME280;70269;44.768;9.600;2023-12-22T11:33:36;96309.09;;;14.22;32.14
80624;BME280;70269;44.768;9.600;2023-12-22T11:36:03;96304.25;;;14.29;32.66
80624;BME280;70269;44.768;9.600;2023-12-22T11:38:30;96308.06;;;14.28;32.42
80624;BME280;70269;44.768;9.600;2023-12-22T11:40:58;96308.59;;;14.25;32.04
80624;BME280;70269;44.768;9.600;2023-12-22T11:43:25;96308.63;;;14.35;34.52
80624;BME280;70269;44.768;9.600;2023-12-22T11:45:51;96295.56;;;14.32;33.01
80624;BME280;70269;44.768;9.600;2023-12-22T11:48:17;96292.84;;;14.32;32.64
80624;BME280;70269;44.768;9.600;2023-12-22T11:50:43;96289.88;;;14.34;33.32
80624;BME280;70269;44.768;9.600;2023-12-22T11:53:23;96298.81;;;14.29;33.48
80624;BME280;70269;44.768;9.600;2023-12-22T11:56:03;96297.31;;;14.48;36.10
80624;BME280;70269;44.768;9.600;2023-12-22T11:58:48;96292.38;;;14.40;35.88
80624;BME280;70269;44.768;9.600;2023-12-22T12:01:20;96286.09;;;14.35;34.77
80624;BME280;70269;44.768;9.600;2023-12-22T12:03:50;96279.00;;;14.29;34.56
80624;BME280;70269;44.768;9.600;2023-12-22T12:06:30;96269.50;;;14.31;36.50
80624;BME280;70269;44.768;9.600;2023-12-22T12:08:57;96279.34;;;14.37;35.10
80624;BME280;70269;44.768;9.600;2023-12-22T12:11:24;96293.97;;;14.31;34.57
80624;BME280;70269;44.768;9.600;2023-12-22T12:14:11;96283.91;;;14.32;34.52
80624;BME280;70269;44.768;9.600;2023-12-22T12:16:40;96290.69;;;14.34;34.24
80624;BME280;70269;44.768;9.600;2023-12-22T12:19:09;96285.59;;;14.38;34.96
80624;BME280;70269;44.768;9.600;2023-12-22T12:21:35;96279.06;;;14.39;35.33
80624;BME280;70269;44.768;9.600;2023-12-22T12:24:00;96278.75;;;14.35;36.27
80624;BME280;70269;44.768;9.600;2023-12-22T12:26:27;96272.53;;;14.40;36.52
80624;BME280;70269;44.768;9.600;2023-12-22T12:28:55;96279.84;;;14.34;34.38
80624;BME280;70269;44.768;9.600;2023-12-22T12:31:35;96265.66;;;14.22;33.49
80624;BME280;70269;44.768;9.600;2023-12-22T12:34:04;96267.56;;;14.22;33.65
80624;BME280;70269;44.768;9.600;2023-12-22T12:36:31;96266.44;;;14.12;34.50
80624;BME280;70269;44.768;9.600;2023-12-22T12:39:17;96263.97;;;14.11;34.22
80624;BME280;70269;44.768;9.600;2023-12-22T12:41:50;96266.47;;;14.17;34.87
80624;BME280;70269;44.768;9.600;2023-12-22T12:44:18;96268.91;;;14.19;33.67
80624;BME280;70269;44.768;9.600;2023-12-22T12:46:45;96277.56;;;14.16;33.68
80624;BME280;70269;44.768;9.600;2023-12-22T12:49:12;96274.41;;;14.34;35.77
80624;BME280;70269;44.768;9.600;2023-12-22T12:51:38;96267.88;;;14.30;36.01
80624;BME280;70269;44.768;9.600;2023-12-22T12:54:05;96270.03;;;14.28;36.24
80624;BME280;70269;44.768;9.600;2023-12-22T12:56:42;96270.03;;;14.28;37.66
80624;BME280;70269;44.768;9.600;2023-12-22T12:59:08;96272.72;;;14.23;35.61
80624;BME280;70269;44.768;9.600;2023-12-22T13:01:44;96261.84;;;14.18;34.55
80624;BME280;70269;44.768;9.600;2023-12-22T13:04:10;96265.31;;;14.08;34.37
80624;BME280;70269;44.768;9.600;2023-12-22T13:06:49;96264.53;;;14.13;35.86